createdAt,value
2022-12-17T00:01:08.466Z,37.22
2022-12-17T00:03:25.640Z,33.83
2022-12-17T00:05:42.772Z,34.70
2022-12-17T00:08:00.093Z,30.42
2022-12-17T00:10:17.159Z,31.05
2022-12-17T00:12:34.452Z,34.33
2022-12-17T00:14:51.490Z,31.38
2022-12-17T00:17:09.073Z,36.72
2022-12-17T00:19:26.868Z,33.78
2022-12-17T00:21:44.203Z,36.30
2022-12-17T00:24:01.800Z,36.13
2022-12-17T00:26:18.877Z,36.83
2022-12-17T00:28:35.842Z,32.60
2022-12-17T00:30:54.138Z,39.45
2022-12-17T00:33:11.043Z,34.85
2022-12-17T00:35:28.087Z,36.65
2022-12-17T00:37:45.392Z,36.42
2022-12-17T00:40:02.426Z,34.42
2022-12-17T00:42:20.529Z,33.88
2022-12-17T00:44:37.498Z,31.25
2022-12-17T00:46:54.549Z,37.15
2022-12-17T00:49:13.050Z,32.53
2022-12-17T00:51:31.350Z,34.80
2022-12-17T00:53:49.295Z,38.38
2022-12-17T00:56:06.239Z,35.92
2022-12-17T00:58:23.198Z,35.53
2022-12-17T01:00:40.572Z,36.67
2022-12-17T01:02:57.738Z,43.95
2022-12-17T01:05:15.062Z,32.72
2022-12-17T01:07:32.102Z,37.53
2022-12-17T01:09:48.997Z,38.85
2022-12-17T01:12:07.042Z,36.28
2022-12-17T01:14:24.295Z,36.97
2022-12-17T01:16:41.251Z,37.90
2022-12-17T01:18:58.342Z,40.85
2022-12-17T01:21:15.315Z,41.50
2022-12-17T01:23:32.337Z,40.22
2022-12-17T01:25:49.588Z,40.42
2022-12-17T01:28:06.829Z,37.20
2022-12-17T01:30:23.838Z,37.55
2022-12-17T01:32:40.825Z,39.20
2022-12-17T01:34:58.851Z,39.53
2022-12-17T01:37:16.059Z,43.78
2022-12-17T01:39:34.251Z,40.25
2022-12-17T01:41:51.308Z,41.65
2022-12-17T01:44:08.337Z,39.25
2022-12-17T01:46:25.306Z,39.97
2022-12-17T01:48:43.571Z,37.65
2022-12-17T01:51:00.833Z,42.35
2022-12-17T01:53:18.859Z,36.60
2022-12-17T01:55:36.135Z,36.95
2022-12-17T01:57:53.160Z,37.70
2022-12-17T02:00:10.268Z,37.92
2022-12-17T02:02:27.411Z,38.15
2022-12-17T02:04:44.702Z,41.13
2022-12-17T02:07:01.767Z,34.55
2022-12-17T02:09:19.102Z,40.63
2022-12-17T02:11:36.316Z,38.97
2022-12-17T02:13:53.350Z,37.58
2022-12-17T02:16:10.265Z,41.78
2022-12-17T02:18:27.341Z,42.97
2022-12-17T02:20:44.320Z,38.00
2022-12-17T02:23:01.541Z,39.78
2022-12-17T02:25:18.568Z,37.47
2022-12-17T02:27:35.803Z,37.83
2022-12-17T02:29:52.712Z,41.95
2022-12-17T02:32:09.599Z,39.10
2022-12-17T02:34:26.533Z,38.75
2022-12-17T02:36:43.567Z,36.42
2022-12-17T02:39:00.590Z,36.47
2022-12-17T02:41:17.890Z,40.30
2022-12-17T02:43:35.128Z,36.00
2022-12-17T02:45:52.572Z,34.03
2022-12-17T02:48:09.810Z,33.80
2022-12-17T02:50:26.772Z,34.03
2022-12-17T02:52:44.024Z,37.30
2022-12-17T02:55:01.346Z,35.38
2022-12-17T02:57:18.315Z,38.88
2022-12-17T02:59:35.567Z,37.90
2022-12-17T03:01:52.638Z,38.17
2022-12-17T03:04:10.639Z,37.03
2022-12-17T03:06:27.542Z,35.30
2022-12-17T03:08:44.854Z,28.70
2022-12-17T03:11:02.063Z,37.72
2022-12-17T03:13:19.016Z,34.42
2022-12-17T03:15:36.018Z,34.28
2022-12-17T03:17:52.955Z,31.85
2022-12-17T03:20:10.180Z,30.92
2022-12-17T03:22:28.214Z,36.40
2022-12-17T03:24:45.211Z,33.35
2022-12-17T03:27:03.107Z,30.92
2022-12-17T03:29:20.051Z,33.40
2022-12-17T03:31:37.169Z,32.92
2022-12-17T03:33:54.484Z,31.20
2022-12-17T03:36:11.423Z,35.35
2022-12-17T03:38:28.497Z,33.75
2022-12-17T03:40:45.452Z,32.97
2022-12-17T03:43:02.473Z,31.90
2022-12-17T03:45:19.584Z,34.75
2022-12-17T03:47:36.559Z,28.45
2022-12-17T03:49:53.535Z,30.20
2022-12-17T03:52:10.513Z,27.02
2022-12-17T03:54:27.493Z,25.70
2022-12-17T03:56:44.474Z,27.73
2022-12-17T03:59:01.760Z,26.77
2022-12-17T04:01:18.886Z,25.90
2022-12-17T04:03:36.306Z,26.45
2022-12-17T04:05:53.567Z,23.60
2022-12-17T04:08:10.629Z,23.75
2022-12-17T04:10:28.715Z,23.13
2022-12-17T04:12:47.094Z,22.52
2022-12-17T04:15:04.102Z,24.55
2022-12-17T04:17:21.168Z,26.98
2022-12-17T04:19:39.424Z,21.92
2022-12-17T04:21:56.650Z,24.38
2022-12-17T04:24:13.856Z,24.73
2022-12-17T04:26:31.185Z,23.13
2022-12-17T04:28:48.431Z,21.77
2022-12-17T04:31:05.438Z,24.50
2022-12-17T04:33:22.481Z,21.42
2022-12-17T04:35:39.554Z,24.77
2022-12-17T04:37:56.819Z,22.70
2022-12-17T04:40:14.085Z,22.38
2022-12-17T04:42:31.358Z,19.75
2022-12-17T04:44:48.664Z,20.25
2022-12-17T04:47:07.004Z,20.23
2022-12-17T04:49:24.329Z,23.23
2022-12-17T04:51:42.308Z,22.45
2022-12-17T04:53:59.611Z,22.08
2022-12-17T04:56:16.496Z,18.25
2022-12-17T04:58:33.588Z,21.10
2022-12-17T05:00:50.833Z,22.35
2022-12-17T05:03:07.831Z,20.08
2022-12-17T05:05:25.189Z,19.58
2022-12-17T05:07:42.564Z,23.15
2022-12-17T05:09:59.878Z,22.52
2022-12-17T05:12:17.213Z,19.45
2022-12-17T05:14:34.144Z,20.35
2022-12-17T05:16:51.189Z,19.05
2022-12-17T05:19:08.171Z,19.55
2022-12-17T05:21:28.108Z,22.45
2022-12-17T05:23:50.146Z,18.67
2022-12-17T05:26:07.388Z,21.45
2022-12-17T05:28:24.419Z,19.25
2022-12-17T05:30:41.451Z,20.33
2022-12-17T05:32:59.707Z,19.67
2022-12-17T05:35:16.977Z,18.73
2022-12-17T05:37:33.968Z,20.33
2022-12-17T05:39:52.233Z,21.33
2022-12-17T05:42:09.201Z,20.08
2022-12-17T05:44:26.250Z,20.33
2022-12-17T05:46:43.332Z,19.70
2022-12-17T05:49:00.263Z,20.17
2022-12-17T05:51:17.198Z,18.42
2022-12-17T05:53:34.801Z,17.52
2022-12-17T05:55:53.372Z,22.92
2022-12-17T05:58:11.197Z,18.60
2022-12-17T06:00:29.267Z,21.35
2022-12-17T06:02:46.441Z,18.65
2022-12-17T06:05:03.533Z,18.70
2022-12-17T06:07:20.506Z,20.88
2022-12-17T06:09:38.807Z,19.58
2022-12-17T06:12:01.001Z,22.27
2022-12-17T06:14:19.748Z,23.25
2022-12-17T06:16:37.118Z,21.30
2022-12-17T06:18:54.416Z,22.10
2022-12-17T06:21:12.490Z,22.75
2022-12-17T06:23:29.521Z,20.38
2022-12-17T06:25:46.597Z,19.30
2022-12-17T06:28:03.912Z,19.55
2022-12-17T06:30:20.971Z,18.05
2022-12-17T06:32:38.024Z,18.88
2022-12-17T06:34:55.407Z,21.67
2022-12-17T06:37:12.321Z,21.42
2022-12-17T06:39:30.567Z,17.95
2022-12-17T06:41:48.875Z,21.05
2022-12-17T06:44:06.055Z,17.25
2022-12-17T06:46:23.168Z,19.75
2022-12-17T06:48:40.295Z,21.33
2022-12-17T06:50:57.597Z,19.83
2022-12-17T06:53:14.673Z,18.70
2022-12-17T06:55:32.586Z,14.55
2022-12-17T06:57:50.640Z,18.80
2022-12-17T07:00:07.732Z,20.27
2022-12-17T07:02:25.229Z,19.73
2022-12-17T07:04:42.351Z,17.67
2022-12-17T07:07:00.459Z,16.85
2022-12-17T07:09:17.549Z,20.88
2022-12-17T07:11:34.712Z,20.50
2022-12-17T07:13:52.059Z,19.30
2022-12-17T07:16:09.189Z,19.33
2022-12-17T07:18:27.322Z,20.33
2022-12-17T07:20:44.676Z,19.40
2022-12-17T07:23:01.902Z,20.75
2022-12-17T07:25:19.741Z,17.27
2022-12-17T07:27:37.110Z,18.80
2022-12-17T07:29:54.463Z,18.25
2022-12-17T07:32:11.411Z,20.27
2022-12-17T07:34:28.661Z,20.63
2022-12-17T07:36:45.588Z,19.70
2022-12-17T07:39:02.715Z,19.40
2022-12-17T07:41:20.100Z,19.42
2022-12-17T07:43:38.386Z,20.15
2022-12-17T07:45:56.086Z,17.80
2022-12-17T07:48:13.074Z,16.73
2022-12-17T07:50:30.110Z,21.90
2022-12-17T07:52:47.176Z,18.83
2022-12-17T07:55:04.172Z,24.52
2022-12-17T07:57:22.196Z,28.30
2022-12-17T07:59:39.236Z,22.70
2022-12-17T08:01:56.643Z,23.70
2022-12-17T08:04:13.906Z,27.50
2022-12-17T08:06:31.219Z,22.42
2022-12-17T08:08:48.267Z,23.05
2022-12-17T08:11:05.277Z,24.00
2022-12-17T08:13:22.308Z,19.15
2022-12-17T08:15:39.385Z,21.73
2022-12-17T08:17:56.278Z,18.70
2022-12-17T08:20:13.307Z,23.05
2022-12-17T08:22:31.593Z,28.58
2022-12-17T08:24:48.894Z,28.15
2022-12-17T08:27:06.124Z,28.33
2022-12-17T08:29:23.367Z,30.23
2022-12-17T08:31:40.302Z,24.05
2022-12-17T08:33:57.233Z,22.00
2022-12-17T08:36:14.258Z,21.85
2022-12-17T08:38:31.116Z,19.67
2022-12-17T08:40:48.162Z,23.88
2022-12-17T08:43:06.472Z,23.38
2022-12-17T08:45:23.542Z,33.88
2022-12-17T08:47:40.554Z,33.97
2022-12-17T08:49:57.824Z,26.75
2022-12-17T08:52:14.764Z,23.95
2022-12-17T08:54:31.762Z,28.30
2022-12-17T08:56:49.504Z,20.02
2022-12-17T08:59:07.594Z,30.42
2022-12-17T09:01:25.116Z,27.70
2022-12-17T09:03:42.271Z,32.88
2022-12-17T09:05:59.669Z,28.70
2022-12-17T09:08:16.907Z,27.75
2022-12-17T09:10:34.967Z,27.95
2022-12-17T09:12:52.167Z,29.15
2022-12-17T09:15:09.183Z,29.73
2022-12-17T09:17:27.109Z,26.48
2022-12-17T09:19:44.142Z,28.70
2022-12-17T09:22:01.589Z,27.20
2022-12-17T09:24:18.503Z,30.33
2022-12-17T09:26:35.733Z,29.60
2022-12-17T09:28:52.795Z,25.40
2022-12-17T09:31:10.259Z,26.60
2022-12-17T09:33:27.288Z,31.30
2022-12-17T09:35:44.280Z,27.95
2022-12-17T09:38:01.383Z,29.08
2022-12-17T09:40:18.316Z,28.88
2022-12-17T09:42:35.276Z,31.88
2022-12-17T09:44:52.512Z,31.48
2022-12-17T09:47:09.609Z,34.08
2022-12-17T09:49:26.589Z,33.30
2022-12-17T09:51:43.846Z,28.45
2022-12-17T09:54:00.709Z,32.78
2022-12-17T09:56:17.941Z,32.20
2022-12-17T09:58:34.941Z,31.92
2022-12-17T10:00:54.988Z,29.63
2022-12-17T10:03:16.241Z,29.73
2022-12-17T10:05:33.350Z,32.38
2022-12-17T10:07:50.273Z,35.75
2022-12-17T10:10:07.342Z,30.67
2022-12-17T10:12:24.455Z,32.10
2022-12-17T10:14:41.848Z,30.63
2022-12-17T10:16:58.951Z,33.15
2022-12-17T10:19:15.911Z,30.10
2022-12-17T10:21:33.203Z,31.58
2022-12-17T10:23:50.133Z,29.08
2022-12-17T10:26:07.210Z,29.63
2022-12-17T10:28:24.621Z,30.60
2022-12-17T10:30:41.578Z,29.45
2022-12-17T10:32:58.968Z,29.95
2022-12-17T10:35:16.077Z,28.65
2022-12-17T10:37:33.371Z,30.63
2022-12-17T10:39:50.635Z,31.98
2022-12-17T10:42:07.786Z,26.40
2022-12-17T10:44:25.099Z,32.05
2022-12-17T10:46:42.242Z,32.53
2022-12-17T10:48:59.329Z,35.28
2022-12-17T10:51:16.229Z,48.33
2022-12-17T10:53:33.731Z,39.55
2022-12-17T10:55:50.925Z,31.88
2022-12-17T10:58:08.228Z,31.35
2022-12-17T11:00:25.201Z,29.30
2022-12-17T11:02:42.219Z,31.05
2022-12-17T11:04:59.276Z,34.35
2022-12-17T11:07:16.504Z,30.80
2022-12-17T11:09:33.471Z,30.90
2022-12-17T11:11:50.827Z,30.85
2022-12-17T11:14:07.749Z,28.10
2022-12-17T11:16:25.200Z,31.75
2022-12-17T11:18:42.129Z,28.60
2022-12-17T11:20:59.472Z,30.40
2022-12-17T11:23:16.463Z,32.55
2022-12-17T11:25:33.510Z,27.83
2022-12-17T11:27:50.840Z,31.65
2022-12-17T11:30:07.898Z,33.92
2022-12-17T11:32:24.963Z,29.00
2022-12-17T11:34:42.037Z,31.08
2022-12-17T11:36:59.123Z,27.88
2022-12-17T11:39:16.191Z,30.30
2022-12-17T11:41:33.154Z,35.03
2022-12-17T11:43:50.077Z,28.48
2022-12-17T11:46:07.464Z,28.05
2022-12-17T11:48:24.481Z,29.33
2022-12-17T11:50:41.763Z,28.75
2022-12-17T11:52:59.347Z,26.35
2022-12-17T11:55:16.650Z,27.10
2022-12-17T11:57:33.982Z,28.25
2022-12-17T11:59:55.091Z,27.75
2022-12-17T12:02:15.524Z,30.58
2022-12-17T12:04:32.619Z,25.42
2022-12-17T12:06:50.510Z,25.98
2022-12-17T12:09:07.414Z,25.15
2022-12-17T12:11:29.733Z,29.33
2022-12-17T12:13:48.524Z,25.15
2022-12-17T12:16:05.919Z,30.30
2022-12-17T12:18:22.958Z,26.70
2022-12-17T12:20:39.873Z,24.67
2022-12-17T12:22:57.143Z,25.73
2022-12-17T12:25:14.081Z,22.13
2022-12-17T12:27:31.031Z,24.50
2022-12-17T12:29:48.159Z,25.02
2022-12-17T12:32:05.154Z,24.67
2022-12-17T12:34:23.071Z,19.90
2022-12-17T12:36:40.367Z,26.50
2022-12-17T12:38:57.287Z,19.67
2022-12-17T12:41:14.464Z,21.67
2022-12-17T12:43:31.761Z,23.20
2022-12-17T12:45:49.179Z,20.42
2022-12-17T12:48:06.468Z,21.02
2022-12-17T12:50:23.732Z,22.20
2022-12-17T12:52:40.649Z,21.85
2022-12-17T12:54:57.601Z,21.80
2022-12-17T12:57:14.491Z,20.40
2022-12-17T12:59:31.576Z,21.40
2022-12-17T13:01:48.745Z,23.27
2022-12-17T13:04:06.179Z,23.00
2022-12-17T13:06:23.489Z,21.23
2022-12-17T13:08:41.838Z,18.45
2022-12-17T13:10:58.776Z,21.92
2022-12-17T13:13:15.801Z,21.80
2022-12-17T13:15:33.444Z,19.42
2022-12-17T13:17:50.678Z,21.92
2022-12-17T13:20:07.731Z,20.67
2022-12-17T13:22:24.829Z,19.50
2022-12-17T13:24:41.841Z,20.98
2022-12-17T13:26:59.781Z,21.60
2022-12-17T13:29:17.100Z,19.27
2022-12-17T13:31:34.097Z,20.85
2022-12-17T13:33:51.074Z,18.75
2022-12-17T13:36:08.012Z,20.75
2022-12-17T13:38:24.991Z,18.30
2022-12-17T13:40:42.254Z,18.75
2022-12-17T13:42:59.259Z,22.13
2022-12-17T13:45:16.299Z,20.08
2022-12-17T13:47:34.501Z,22.45
2022-12-17T13:50:24.594Z,20.25
2022-12-17T13:52:28.771Z,21.20
2022-12-17T13:54:45.734Z,20.90
2022-12-17T13:57:02.946Z,19.00
2022-12-17T13:59:19.833Z,21.25
2022-12-17T14:01:36.999Z,17.52
2022-12-17T14:04:09.455Z,17.98
2022-12-17T14:06:27.801Z,20.58
2022-12-17T14:08:44.848Z,18.48
2022-12-17T14:11:06.581Z,22.90
2022-12-17T14:13:24.057Z,20.60
2022-12-17T14:15:40.985Z,16.67
2022-12-17T14:17:57.980Z,17.55
2022-12-17T14:20:14.878Z,17.05
2022-12-17T14:22:31.863Z,17.95
2022-12-17T14:24:49.146Z,18.55
2022-12-17T14:27:06.420Z,17.58
2022-12-17T14:29:23.651Z,21.67
2022-12-17T14:31:40.791Z,19.17
2022-12-17T14:33:57.874Z,18.88
2022-12-17T14:36:14.792Z,16.95
2022-12-17T14:38:38.388Z,19.48
2022-12-17T14:40:56.337Z,18.27
2022-12-17T14:43:13.264Z,17.55
2022-12-17T14:45:30.233Z,18.85
2022-12-17T14:47:48.359Z,19.60
2022-12-17T14:50:05.706Z,18.02
2022-12-17T14:52:22.936Z,18.77
2022-12-17T14:54:39.848Z,25.17
2022-12-17T14:56:56.898Z,18.38
2022-12-17T14:59:14.302Z,14.98
2022-12-17T15:01:31.317Z,20.70
2022-12-17T15:03:48.483Z,22.00
2022-12-17T15:06:05.471Z,18.55
2022-12-17T15:08:22.819Z,18.88
2022-12-17T15:10:40.056Z,24.02
2022-12-17T15:12:59.470Z,25.17
2022-12-17T15:15:16.583Z,22.85
2022-12-17T15:17:34.428Z,22.05
2022-12-17T15:19:56.208Z,22.10
2022-12-17T15:22:13.494Z,21.30
2022-12-17T15:24:30.483Z,23.27
2022-12-17T15:26:47.441Z,25.15
2022-12-17T15:29:04.694Z,21.48
2022-12-17T15:31:25.522Z,20.35
2022-12-17T15:33:44.888Z,19.23
2022-12-17T15:36:02.207Z,21.25
2022-12-17T15:38:19.202Z,21.13
2022-12-17T15:40:36.223Z,18.65
2022-12-17T15:42:53.214Z,17.55
2022-12-17T15:45:10.549Z,19.65
2022-12-17T15:47:27.984Z,15.00
2022-12-17T15:49:45.315Z,18.92
2022-12-17T15:52:02.551Z,13.60
2022-12-17T15:54:19.507Z,16.35
2022-12-17T15:56:36.772Z,19.48
2022-12-17T15:58:53.820Z,17.88
2022-12-17T16:01:10.793Z,17.52
2022-12-17T16:03:27.906Z,16.60
2022-12-17T16:05:44.981Z,15.15
2022-12-17T16:08:02.023Z,23.50
2022-12-17T16:10:20.096Z,20.52
2022-12-17T16:12:37.087Z,20.67
2022-12-17T16:14:54.138Z,17.77
2022-12-17T16:17:11.380Z,20.02
2022-12-17T16:19:28.623Z,19.52
2022-12-17T16:21:47.141Z,20.35
2022-12-17T16:24:04.274Z,18.23
2022-12-17T16:26:21.320Z,18.13
2022-12-17T16:28:38.934Z,19.90
2022-12-17T16:30:56.233Z,17.38
2022-12-17T16:33:13.364Z,20.98
2022-12-17T16:35:30.451Z,19.02
2022-12-17T16:37:47.447Z,18.25
2022-12-17T16:40:05.543Z,19.73
2022-12-17T16:42:22.854Z,18.80
2022-12-17T16:44:39.897Z,18.70
2022-12-17T16:46:59.980Z,13.80
2022-12-17T16:49:17.178Z,20.33
2022-12-17T16:51:34.490Z,17.83
2022-12-17T16:53:51.515Z,19.15
2022-12-17T16:56:09.106Z,18.42
2022-12-17T16:58:26.111Z,19.40
2022-12-17T17:00:43.404Z,19.52
2022-12-17T17:03:00.443Z,22.55
2022-12-17T17:05:17.603Z,19.63
2022-12-17T17:07:34.940Z,21.17
2022-12-17T17:09:51.967Z,19.48
2022-12-17T17:12:09.303Z,18.23
2022-12-17T17:14:27.048Z,18.02
2022-12-17T17:16:44.097Z,20.60
2022-12-17T17:19:02.397Z,21.60
2022-12-17T17:21:19.278Z,19.38
2022-12-17T17:23:36.338Z,22.23
2022-12-17T17:25:58.270Z,19.63
2022-12-17T17:28:16.058Z,23.05
2022-12-17T17:30:32.977Z,21.25
2022-12-17T17:32:49.972Z,24.33
2022-12-17T17:35:07.115Z,23.17
2022-12-17T17:37:24.112Z,21.23
2022-12-17T17:39:41.914Z,22.40
2022-12-17T17:41:58.981Z,22.05
2022-12-17T17:44:17.318Z,23.02
2022-12-17T17:46:34.297Z,24.75
2022-12-17T17:48:56.622Z,29.73
2022-12-17T17:51:14.212Z,25.27
2022-12-17T17:53:31.189Z,33.75
2022-12-17T17:55:48.464Z,30.63
2022-12-17T17:58:05.400Z,29.67
2022-12-17T18:00:22.764Z,32.05
2022-12-17T18:02:40.188Z,33.65
2022-12-17T18:04:57.608Z,35.97
2022-12-17T18:07:30.054Z,37.30
2022-12-17T18:09:47.052Z,36.58
2022-12-17T18:12:04.342Z,36.17
2022-12-17T18:14:21.397Z,42.30
2022-12-17T18:16:38.484Z,42.78
2022-12-17T18:18:55.590Z,40.83
2022-12-17T18:21:12.696Z,38.08
2022-12-17T18:23:30.659Z,36.28
2022-12-17T18:25:47.561Z,42.42
2022-12-17T18:28:04.610Z,39.88
2022-12-17T18:30:21.677Z,32.90
2022-12-17T18:32:39.263Z,29.23
2022-12-17T18:34:56.364Z,29.02
2022-12-17T18:37:14.729Z,31.38
2022-12-17T18:39:31.706Z,28.33
2022-12-17T18:41:48.659Z,30.38
2022-12-17T18:44:05.692Z,37.42
2022-12-17T18:46:23.570Z,39.08
2022-12-17T18:48:40.905Z,34.15
2022-12-17T18:51:02.532Z,35.80
2022-12-17T18:53:20.228Z,32.17
2022-12-17T18:55:37.296Z,30.83
2022-12-17T18:57:55.250Z,29.98
2022-12-17T19:00:12.171Z,27.27
2022-12-17T19:02:29.511Z,31.95
2022-12-17T19:04:46.925Z,29.98
2022-12-17T19:07:04.878Z,35.83
2022-12-17T19:09:21.866Z,36.90
2022-12-17T19:11:43.412Z,37.72
2022-12-17T19:14:00.976Z,40.40
2022-12-17T19:16:17.962Z,40.83
2022-12-17T19:18:35.485Z,38.78
2022-12-17T19:20:52.829Z,36.85
2022-12-17T19:23:10.096Z,35.53
2022-12-17T19:25:27.089Z,30.77
2022-12-17T19:27:44.504Z,31.73
2022-12-17T19:30:01.574Z,35.53
2022-12-17T19:32:18.898Z,30.67
2022-12-17T19:34:35.837Z,32.70
2022-12-17T19:36:52.887Z,27.65
2022-12-17T19:39:10.236Z,30.05
2022-12-17T19:41:27.296Z,25.90
2022-12-17T19:43:44.533Z,31.95
2022-12-17T19:46:01.958Z,33.80
2022-12-17T19:48:18.860Z,34.75
2022-12-17T19:50:35.846Z,32.90
2022-12-17T19:52:53.246Z,32.65
2022-12-17T19:55:10.520Z,33.72
2022-12-17T19:57:27.465Z,31.13
2022-12-17T19:59:44.704Z,33.75
2022-12-17T20:02:02.035Z,33.78
2022-12-17T20:04:19.296Z,33.20
2022-12-17T20:06:36.305Z,32.20
2022-12-17T20:08:54.321Z,28.67
2022-12-17T20:11:11.247Z,32.83
2022-12-17T20:13:28.316Z,31.63
2022-12-17T20:15:45.386Z,39.20
2022-12-17T20:18:02.260Z,35.53
2022-12-17T20:20:19.359Z,36.08
2022-12-17T20:22:36.337Z,31.52
2022-12-17T20:24:53.328Z,33.65
2022-12-17T20:27:10.316Z,34.92
2022-12-17T20:29:27.361Z,38.47
2022-12-17T20:31:48.118Z,38.75
2022-12-17T20:34:06.949Z,35.28
2022-12-17T20:36:24.195Z,28.67
2022-12-17T20:38:41.819Z,29.10
2022-12-17T20:40:59.081Z,28.27
2022-12-17T20:43:16.273Z,25.67
2022-12-17T20:45:33.584Z,31.75
2022-12-17T20:47:50.704Z,30.90
2022-12-17T20:50:07.681Z,27.75
2022-12-17T20:52:24.921Z,31.48
2022-12-17T20:54:41.926Z,28.33
2022-12-17T20:56:58.891Z,33.65
2022-12-17T20:59:15.950Z,28.35
2022-12-17T21:01:33.315Z,32.22
2022-12-17T21:03:51.143Z,30.27
2022-12-17T21:06:08.274Z,28.08
2022-12-17T21:08:25.349Z,26.30
2022-12-17T21:10:42.768Z,30.65
2022-12-17T21:13:00.088Z,37.80
2022-12-17T21:15:17.419Z,33.00
2022-12-17T21:17:34.312Z,27.92
2022-12-17T21:19:51.537Z,27.70
2022-12-17T21:22:09.953Z,32.13
2022-12-17T21:24:28.264Z,28.40
2022-12-17T21:26:45.327Z,34.78
2022-12-17T21:29:03.570Z,30.85
2022-12-17T21:31:20.877Z,31.10
2022-12-17T21:33:38.007Z,35.05
2022-12-17T21:35:56.549Z,28.63
2022-12-17T21:38:13.385Z,26.38
2022-12-17T21:40:30.619Z,29.17
2022-12-17T21:42:48.550Z,30.20
2022-12-17T21:45:06.787Z,29.52
2022-12-17T21:47:24.046Z,25.77
2022-12-17T21:49:40.964Z,33.17
2022-12-17T21:51:58.047Z,30.67
2022-12-17T21:54:19.256Z,30.00
2022-12-17T21:56:36.466Z,25.73
2022-12-17T21:58:53.646Z,27.55
2022-12-17T22:01:18.663Z,29.42
2022-12-17T22:03:36.740Z,23.45
2022-12-17T22:05:53.786Z,26.40
2022-12-17T22:08:12.128Z,24.75
2022-12-17T22:10:41.999Z,24.45
2022-12-17T22:13:06.601Z,25.35
2022-12-17T22:15:30.714Z,27.73
2022-12-17T22:17:55.240Z,29.58
2022-12-17T22:20:13.429Z,26.90
2022-12-17T22:22:30.677Z,27.08
2022-12-17T22:24:47.772Z,27.30
2022-12-17T22:27:05.143Z,28.48
2022-12-17T22:29:27.023Z,25.83
2022-12-17T22:31:44.046Z,24.45
2022-12-17T22:35:18.095Z,28.35
2022-12-17T22:39:18.285Z,25.38
2022-12-17T22:41:12.086Z,23.52
2022-12-17T22:44:34.916Z,28.27
2022-12-17T22:44:52.187Z,23.50
2022-12-17T22:47:06.760Z,25.83
2022-12-17T22:49:23.825Z,29.10
2022-12-17T22:51:40.858Z,28.60
2022-12-17T22:54:00.107Z,28.58
2022-12-17T22:56:26.463Z,25.27
2022-12-17T22:58:54.473Z,24.00
2022-12-17T23:01:12.522Z,23.35
2022-12-17T23:03:29.919Z,24.70
2022-12-17T23:05:46.992Z,23.60
2022-12-17T23:08:03.980Z,25.23
2022-12-17T23:10:20.898Z,28.35
2022-12-17T23:12:38.177Z,24.95
2022-12-17T23:14:55.414Z,22.83
2022-12-17T23:17:12.386Z,24.20
2022-12-17T23:19:29.443Z,28.08
2022-12-17T23:21:46.754Z,27.90
2022-12-17T23:24:04.809Z,26.58
2022-12-17T23:26:22.089Z,28.50
2022-12-17T23:28:39.123Z,23.27
2022-12-17T23:30:56.172Z,25.80
2022-12-17T23:33:13.347Z,30.02
2022-12-17T23:35:31.348Z,28.85
2022-12-17T23:37:48.311Z,23.52
2022-12-17T23:40:05.354Z,25.45
2022-12-17T23:42:22.664Z,26.58
2022-12-17T23:44:40.002Z,27.27
2022-12-17T23:46:57.410Z,25.55
2022-12-17T23:49:14.563Z,28.77
2022-12-17T23:51:31.835Z,30.38
2022-12-17T23:53:49.191Z,23.08
2022-12-17T23:56:06.242Z,25.10
2022-12-17T23:58:23.523Z,22.48
